Terminal Aerodrome Forecast
Issued by NWS

Home | Current Version | Previous Version | Text Only | Print | Product List | Glossary On
Versions: 1 2 3 4 5 6 7 8 9 10 11 12 13 14 15 16 17 18 19 20 21 22 23 24 25
000
FTUS44 KLZK 162340
TAFLIT
TAF
KLIT 162340Z 1700/1724 23008KT 5SM TSRA BR SCT015 OVC030CB
      TEMPO 1700/1703 2SM -TSRA BR BKN015CB
     FM170300 26004KT P6SM BKN050
      TEMPO 1709/1713 4SM BR BKN015
     FM171800 29007KT P6SM SCT050 BKN120=

USA.gov is the U.S. government's official web portal to all federal, state and local government web resources and services.